sensor_id;sensor_type;location;lat;lon;timestamp;pressure;altitude;pressure_sealevel;temperature;humidity
61474;BME280;53694;49.784;30.150;2023-06-10T00:01:00;99385.44;;;17.99;63.31
61474;BME280;53694;49.784;30.150;2023-06-10T00:02:01;99377.11;;;17.99;63.57
61474;BME280;53694;49.784;30.150;2023-06-10T00:03:03;99389.00;;;18.00;63.72
61474;BME280;53694;49.784;30.150;2023-06-10T00:04:04;99383.45;;;18.00;63.78
61474;BME280;53694;49.784;30.150;2023-06-10T00:05:06;99381.09;;;17.98;63.83
61474;BME280;53694;49.784;30.150;2023-06-10T00:06:08;99378.74;;;17.97;63.94
61474;BME280;53694;49.784;30.150;2023-06-10T00:07:10;99383.48;;;17.96;64.08
61474;BME280;53694;49.784;30.150;2023-06-10T00:08:11;99379.14;;;17.95;64.41
61474;BME280;53694;49.784;30.150;2023-06-10T00:09:13;99378.00;;;17.93;64.71
61474;BME280;53694;49.784;30.150;2023-06-10T00:10:14;99380.36;;;17.94;64.73
61474;BME280;53694;49.784;30.150;2023-06-10T00:11:16;99378.79;;;17.93;64.56
61474;BME280;53694;49.784;30.150;2023-06-10T00:12:17;99374.84;;;17.91;64.19
61474;BME280;53694;49.784;30.150;2023-06-10T00:13:19;99371.70;;;17.89;64.31
61474;BME280;53694;49.784;30.150;2023-06-10T00:14:20;99373.70;;;17.88;64.84
61474;BME280;53694;49.784;30.150;2023-06-10T00:15:22;99370.92;;;17.88;64.56
61474;BME280;53694;49.784;30.150;2023-06-10T00:16:23;99363.77;;;17.87;64.49
61474;BME280;53694;49.784;30.150;2023-06-10T00:17:25;99375.73;;;17.84;64.29
61474;BME280;53694;49.784;30.150;2023-06-10T00:18:26;99372.22;;;17.80;64.33
61474;BME280;53694;49.784;30.150;2023-06-10T00:19:28;99373.83;;;17.78;64.69
61474;BME280;53694;49.784;30.150;2023-06-10T00:20:30;99369.48;;;17.77;64.76
61474;BME280;53694;49.784;30.150;2023-06-10T00:21:33;99375.44;;;17.75;64.92
61474;BME280;53694;49.784;30.150;2023-06-10T00:22:35;99366.72;;;17.73;64.50
61474;BME280;53694;49.784;30.150;2023-06-10T00:23:37;99369.49;;;17.73;64.58
61474;BME280;53694;49.784;30.150;2023-06-10T00:24:38;99369.49;;;17.73;65.17
61474;BME280;53694;49.784;30.150;2023-06-10T00:25:40;99369.48;;;17.77;65.62
61474;BME280;53694;49.784;30.150;2023-06-10T00:26:41;99376.17;;;17.79;65.49
61474;BME280;53694;49.784;30.150;2023-06-10T00:27:43;99372.58;;;17.82;65.23
61474;BME280;53694;49.784;30.150;2023-06-10T00:28:44;99367.02;;;17.82;65.55
61474;BME280;53694;49.784;30.150;2023-06-10T00:29:46;99369.80;;;17.82;65.57
61474;BME280;53694;49.784;30.150;2023-06-10T00:30:47;99373.78;;;17.81;65.85
61474;BME280;53694;49.784;30.150;2023-06-10T00:31:49;99372.62;;;17.79;65.78
61474;BME280;53694;49.784;30.150;2023-06-10T00:32:50;99361.15;;;17.77;65.32
61474;BME280;53694;49.784;30.150;2023-06-10T00:33:52;99359.16;;;17.73;64.99
61474;BME280;53694;49.784;30.150;2023-06-10T00:34:53;99367.92;;;17.72;64.35
61474;BME280;53694;49.784;30.150;2023-06-10T00:35:55;99366.33;;;17.71;64.44
61474;BME280;53694;49.784;30.150;2023-06-10T00:36:57;99368.32;;;17.70;65.98
61474;BME280;53694;49.784;30.150;2023-06-10T00:37:59;99366.72;;;17.73;66.15
61474;BME280;53694;49.784;30.150;2023-06-10T00:39:00;99373.86;;;17.74;65.99
61474;BME280;53694;49.784;30.150;2023-06-10T00:40:04;99365.53;;;17.74;65.69
61474;BME280;53694;49.784;30.150;2023-06-10T00:41:06;99375.83;;;17.73;65.90
61474;BME280;53694;49.784;30.150;2023-06-10T00:42:08;99364.72;;;17.73;65.59
61474;BME280;53694;49.784;30.150;2023-06-10T00:43:09;99370.70;;;17.72;65.60
61474;BME280;53694;49.784;30.150;2023-06-10T00:44:11;99362.38;;;17.72;65.44
61474;BME280;53694;49.784;30.150;2023-06-10T00:45:13;99365.55;;;17.70;65.19
61474;BME280;53694;49.784;30.150;2023-06-10T00:46:14;99362.41;;;17.68;65.19
61474;BME280;53694;49.784;30.150;2023-06-10T00:47:16;99360.03;;;17.67;65.39
61474;BME280;53694;49.784;30.150;2023-06-10T00:48:18;99364.02;;;17.66;65.73
61474;BME280;53694;49.784;30.150;2023-06-10T00:49:20;99367.18;;;17.68;65.85
61474;BME280;53694;49.784;30.150;2023-06-10T00:50:21;99355.64;;;17.69;66.21
61474;BME280;53694;49.784;30.150;2023-06-10T00:51:23;99361.16;;;17.73;66.45
61474;BME280;53694;49.784;30.150;2023-06-10T00:52:27;99361.55;;;17.75;66.18
61474;BME280;53694;49.784;30.150;2023-06-10T00:53:29;99357.59;;;17.76;66.32
61474;BME280;53694;49.784;30.150;2023-06-10T00:54:31;99354.38;;;17.78;64.92
61474;BME280;53694;49.784;30.150;2023-06-10T00:55:33;99354.38;;;17.78;65.17
61474;BME280;53694;49.784;30.150;2023-06-10T00:56:36;99356.73;;;17.79;66.30
61474;BME280;53694;49.784;30.150;2023-06-10T00:57:38;99352.78;;;17.80;66.48
61474;BME280;53694;49.784;30.150;2023-06-10T00:58:40;99358.33;;;17.80;66.52
61474;BME280;53694;49.784;30.150;2023-06-10T00:59:43;99357.12;;;17.81;66.65
61474;BME280;53694;49.784;30.150;2023-06-10T01:00:46;99361.47;;;17.82;66.58
61474;BME280;53694;49.784;30.150;2023-06-10T01:01:48;99357.52;;;17.80;66.90
61474;BME280;53694;49.784;30.150;2023-06-10T01:02:50;99353.95;;;17.79;66.67
61474;BME280;53694;49.784;30.150;2023-06-10T01:03:51;99359.94;;;17.78;66.46
61474;BME280;53694;49.784;30.150;2023-06-10T01:04:53;99359.94;;;17.78;66.87
61474;BME280;53694;49.784;30.150;2023-06-10T01:06:05;99361.55;;;17.75;66.84
61474;BME280;53694;49.784;30.150;2023-06-10T01:07:22;99359.16;;;17.73;66.99
61474;BME280;53694;49.784;30.150;2023-06-10T01:08:35;99360.77;;;17.71;67.02
61474;BME280;53694;49.784;30.150;2023-06-10T01:09:47;99358.46;;;17.66;67.08
61474;BME280;53694;49.784;30.150;2023-06-10T01:10:50;99361.70;;;17.61;67.03
61474;BME280;53694;49.784;30.150;2023-06-10T01:12:01;99360.17;;;17.56;67.13
61474;BME280;53694;49.784;30.150;2023-06-10T01:13:02;99355.09;;;17.51;67.58
61474;BME280;53694;49.784;30.150;2023-06-10T01:14:04;99355.13;;;17.47;67.74
61474;BME280;53694;49.784;30.150;2023-06-10T01:15:06;99357.16;;;17.43;67.69
61474;BME280;53694;49.784;30.150;2023-06-10T01:16:10;99363.52;;;17.40;67.83
61474;BME280;53694;49.784;30.150;2023-06-10T01:17:12;99364.34;;;17.37;68.25
61474;BME280;53694;49.784;30.150;2023-06-10T01:18:13;99364.41;;;17.34;68.45
61474;BME280;53694;49.784;30.150;2023-06-10T01:19:15;99364.48;;;17.27;69.01
61474;BME280;53694;49.784;30.150;2023-06-10T01:20:17;99364.48;;;17.27;69.01
61474;BME280;53694;49.784;30.150;2023-06-10T01:21:21;99360.53;;;17.24;68.88
61474;BME280;53694;49.784;30.150;2023-06-10T01:22:23;99364.93;;;17.21;69.12
61474;BME280;53694;49.784;30.150;2023-06-10T01:23:25;99359.77;;;17.20;69.28
61474;BME280;53694;49.784;30.150;2023-06-10T01:24:28;99359.77;;;17.20;69.52
61474;BME280;53694;49.784;30.150;2023-06-10T01:25:30;99359.41;;;17.18;69.49
61474;BME280;53694;49.784;30.150;2023-06-10T01:26:32;99361.80;;;17.16;69.62
61474;BME280;53694;49.784;30.150;2023-06-10T01:27:37;99359.09;;;17.12;69.68
61474;BME280;53694;49.784;30.150;2023-06-10T01:28:47;99359.91;;;17.09;69.59
61474;BME280;53694;49.784;30.150;2023-06-10T01:29:58;99361.50;;;17.07;69.60
61474;BME280;53694;49.784;30.150;2023-06-10T01:32:19;99365.91;;;17.04;69.68
61474;BME280;53694;49.784;30.150;2023-06-10T01:33:14;99359.58;;;17.04;69.65
61474;BME280;53694;49.784;30.150;2023-06-10T01:34:18;99365.12;;;17.04;69.83
61474;BME280;53694;49.784;30.150;2023-06-10T01:35:21;99368.26;;;17.06;69.50
61474;BME280;53694;49.784;30.150;2023-06-10T01:36:25;99362.34;;;17.04;69.32
61474;BME280;53694;49.784;30.150;2023-06-10T01:37:27;99359.97;;;17.02;69.37
61474;BME280;53694;49.784;30.150;2023-06-10T01:38:36;99363.55;;;16.99;69.53
61474;BME280;53694;49.784;30.150;2023-06-10T01:39:37;99365.54;;;16.98;69.66
61474;BME280;53694;49.784;30.150;2023-06-10T01:40:41;99365.60;;;16.95;69.78
61474;BME280;53694;49.784;30.150;2023-06-10T01:41:43;99365.99;;;16.93;69.72
61474;BME280;53694;49.784;30.150;2023-06-10T01:42:44;99368.80;;;16.90;69.87
61474;BME280;53694;49.784;30.150;2023-06-10T01:43:46;99368.82;;;16.86;69.95
61474;BME280;53694;49.784;30.150;2023-06-10T01:44:48;99365.69;;;16.84;70.09
61474;BME280;53694;49.784;30.150;2023-06-10T01:45:50;99373.64;;;16.82;70.32
61474;BME280;53694;49.784;30.150;2023-06-10T01:46:51;99364.92;;;16.80;70.41
61474;BME280;53694;49.784;30.150;2023-06-10T01:47:53;99367.25;;;16.85;70.57
61474;BME280;53694;49.784;30.150;2023-06-10T01:48:55;99366.30;;;17.03;70.42
61474;BME280;53694;49.784;30.150;2023-06-10T01:49:57;99373.16;;;17.29;69.58
61474;BME280;53694;49.784;30.150;2023-06-10T01:50:59;99372.03;;;17.60;68.56
61474;BME280;53694;49.784;30.150;2023-06-10T01:52:00;99369.24;;;17.94;67.57
61474;BME280;53694;49.784;30.150;2023-06-10T01:53:03;99363.69;;;18.21;66.70
61474;BME280;53694;49.784;30.150;2023-06-10T01:54:05;99369.84;;;18.36;65.82
61474;BME280;53694;49.784;30.150;2023-06-10T01:55:07;99359.08;;;18.38;65.18
61474;BME280;53694;49.784;30.150;2023-06-10T01:56:09;99365.11;;;18.33;65.11
61474;BME280;53694;49.784;30.150;2023-06-10T01:57:10;99369.63;;;18.23;65.15
61474;BME280;53694;49.784;30.150;2023-06-10T01:58:12;99361.08;;;18.11;65.68
61474;BME280;53694;49.784;30.150;2023-06-10T01:59:13;99364.55;;;17.88;66.24
61474;BME280;53694;49.784;30.150;2023-06-10T02:00:16;99364.55;;;17.88;66.24
61474;BME280;53694;49.784;30.150;2023-06-10T02:01:17;99357.59;;;17.76;66.52
61474;BME280;53694;49.784;30.150;2023-06-10T02:02:19;99358.46;;;17.66;67.00
61474;BME280;53694;49.784;30.150;2023-06-10T02:03:20;99360.96;;;17.57;67.21
61474;BME280;53694;49.784;30.150;2023-06-10T02:04:22;99367.44;;;17.46;67.49
61474;BME280;53694;49.784;30.150;2023-06-10T02:05:24;99358.14;;;17.36;68.15
61474;BME280;53694;49.784;30.150;2023-06-10T02:06:26;99358.14;;;17.26;68.62
61474;BME280;53694;49.784;30.150;2023-06-10T02:07:27;99371.72;;;17.17;68.38
61474;BME280;53694;49.784;30.150;2023-06-10T02:08:29;99368.65;;;17.08;67.92
61474;BME280;53694;49.784;30.150;2023-06-10T02:09:31;99379.80;;;17.01;68.12
61474;BME280;53694;49.784;30.150;2023-06-10T02:10:32;99368.77;;;16.93;68.57
61474;BME280;53694;49.784;30.150;2023-06-10T02:11:34;99371.23;;;16.84;68.83
61474;BME280;53694;49.784;30.150;2023-06-10T02:12:35;99374.84;;;16.78;68.91
61474;BME280;53694;49.784;30.150;2023-06-10T02:13:38;99368.92;;;16.72;69.05
61474;BME280;53694;49.784;30.150;2023-06-10T02:14:39;99374.92;;;16.67;69.15
61474;BME280;53694;49.784;30.150;2023-06-10T02:15:41;99378.50;;;16.64;69.33
61474;BME280;53694;49.784;30.150;2023-06-10T02:16:42;99376.93;;;16.63;69.52
61474;BME280;53694;49.784;30.150;2023-06-10T02:17:44;99368.61;;;16.63;69.79
61474;BME280;53694;49.784;30.150;2023-06-10T02:18:45;99376.53;;;16.61;69.56
61474;BME280;53694;49.784;30.150;2023-06-10T02:19:47;99376.95;;;16.59;69.50
61474;BME280;53694;49.784;30.150;2023-06-10T02:20:48;99384.91;;;16.57;69.60
61474;BME280;53694;49.784;30.150;2023-06-10T02:21:50;99379.75;;;16.56;69.78
61474;BME280;53694;49.784;30.150;2023-06-10T02:22:52;99381.75;;;16.52;70.49
61474;BME280;53694;49.784;30.150;2023-06-10T02:23:53;99381.75;;;16.52;70.49
61474;BME280;53694;49.784;30.150;2023-06-10T02:24:55;99375.84;;;16.49;70.74
61474;BME280;53694;49.784;30.150;2023-06-10T02:25:56;99377.76;;;16.56;70.76
61474;BME280;53694;49.784;30.150;2023-06-10T02:26:58;99382.40;;;16.73;70.31
61474;BME280;53694;49.784;30.150;2023-06-10T02:27:59;99390.87;;;17.04;69.70
61474;BME280;53694;49.784;30.150;2023-06-10T02:29:01;99373.84;;;17.40;68.65
61474;BME280;53694;49.784;30.150;2023-06-10T02:30:03;99380.95;;;17.79;67.04
61474;BME280;53694;49.784;30.150;2023-06-10T02:31:05;99380.15;;;18.09;65.94
61474;BME280;53694;49.784;30.150;2023-06-10T02:32:07;99386.27;;;18.27;64.74
61474;BME280;53694;49.784;30.150;2023-06-10T02:33:09;99390.13;;;18.33;63.88
61474;BME280;53694;49.784;30.150;2023-06-10T02:34:10;99398.52;;;18.30;62.98
61474;BME280;53694;49.784;30.150;2023-06-10T02:35:12;99386.71;;;18.22;62.53
61474;BME280;53694;49.784;30.150;2023-06-10T02:36:13;99386.09;;;18.11;62.59
61474;BME280;53694;49.784;30.150;2023-06-10T02:37:15;99389.78;;;18.01;63.02
61474;BME280;53694;49.784;30.150;2023-06-10T02:38:17;99390.69;;;17.94;64.08
61474;BME280;53694;49.784;30.150;2023-06-10T02:39:18;99392.77;;;17.86;64.38
61474;BME280;53694;49.784;30.150;2023-06-10T02:40:20;99388.50;;;17.78;64.37
61474;BME280;53694;49.784;30.150;2023-06-10T02:41:22;99385.41;;;17.69;64.60
61474;BME280;53694;49.784;30.150;2023-06-10T02:42:23;99389.89;;;17.59;64.81
61474;BME280;53694;49.784;30.150;2023-06-10T02:43:25;99377.30;;;17.51;65.05
61474;BME280;53694;49.784;30.150;2023-06-10T02:44:26;99380.22;;;17.37;64.99
61474;BME280;53694;49.784;30.150;2023-06-10T02:45:28;99380.22;;;17.37;64.99
61474;BME280;53694;49.784;30.150;2023-06-10T02:46:29;99382.66;;;17.31;65.19
61474;BME280;53694;49.784;30.150;2023-06-10T02:47:31;99377.56;;;17.26;65.90
61474;BME280;53694;49.784;30.150;2023-06-10T02:48:40;99381.19;;;17.19;65.90
61474;BME280;53694;49.784;30.150;2023-06-10T02:49:37;99378.09;;;17.14;65.82
61474;BME280;53694;49.784;30.150;2023-06-10T02:50:39;99382.09;;;17.09;66.03
61474;BME280;53694;49.784;30.150;2023-06-10T02:51:40;99386.08;;;17.08;66.28
61474;BME280;53694;49.784;30.150;2023-06-10T02:52:42;99379.75;;;17.08;66.85
61474;BME280;53694;49.784;30.150;2023-06-10T02:53:43;99388.85;;;17.08;67.23
61474;BME280;53694;49.784;30.150;2023-06-10T02:54:45;99386.86;;;17.09;67.19
61474;BME280;53694;49.784;30.150;2023-06-10T02:55:46;99390.84;;;17.08;67.27
61474;BME280;53694;49.784;30.150;2023-06-10T02:56:48;99383.70;;;17.07;67.14
61474;BME280;53694;49.784;30.150;2023-06-10T02:57:49;99386.89;;;17.05;67.11
61474;BME280;53694;49.784;30.150;2023-06-10T02:58:51;99386.89;;;17.05;67.19
61474;BME280;53694;49.784;30.150;2023-06-10T02:59:52;99381.34;;;17.05;67.22
61474;BME280;53694;49.784;30.150;2023-06-10T03:00:54;99390.45;;;17.06;67.41
61474;BME280;53694;49.784;30.150;2023-06-10T03:01:55;99386.89;;;17.05;67.64
61474;BME280;53694;49.784;30.150;2023-06-10T03:02:57;99388.46;;;17.06;68.08
61474;BME280;53694;49.784;30.150;2023-06-10T03:03:58;99392.02;;;17.07;68.36
61474;BME280;53694;49.784;30.150;2023-06-10T03:05:00;99388.46;;;17.06;68.08
61474;BME280;53694;49.784;30.150;2023-06-10T03:06:01;99390.45;;;17.06;68.11
61474;BME280;53694;49.784;30.150;2023-06-10T03:07:03;99391.23;;;17.06;68.08
61474;BME280;53694;49.784;30.150;2023-06-10T03:08:05;99396.00;;;17.06;68.49
61474;BME280;53694;49.784;30.150;2023-06-10T03:09:06;99396.00;;;17.06;68.48
61474;BME280;53694;49.784;30.150;2023-06-10T03:10:08;99392.02;;;17.07;68.45
61474;BME280;53694;49.784;30.150;2023-06-10T03:11:10;99393.62;;;17.08;68.55
61474;BME280;53694;49.784;30.150;2023-06-10T03:12:11;99397.95;;;17.09;68.38
61474;BME280;53694;49.784;30.150;2023-06-10T03:13:13;99391.20;;;17.10;68.40
61474;BME280;53694;49.784;30.150;2023-06-10T03:14:14;99396.33;;;17.11;68.40
61474;BME280;53694;49.784;30.150;2023-06-10T03:15:16;99393.95;;;17.13;68.46
61474;BME280;53694;49.784;30.150;2023-06-10T03:16:17;99388.38;;;17.17;68.58
61474;BME280;53694;49.784;30.150;2023-06-10T03:17:19;99389.91;;;17.21;68.79
61474;BME280;53694;49.784;30.150;2023-06-10T03:18:20;99397.00;;;17.26;69.06
61474;BME280;53694;49.784;30.150;2023-06-10T03:19:22;99396.18;;;17.29;69.33
61474;BME280;53694;49.784;30.150;2023-06-10T03:20:23;99387.79;;;17.33;69.37
61474;BME280;53694;49.784;30.150;2023-06-10T03:21:25;99384.98;;;17.36;69.35
61474;BME280;53694;49.784;30.150;2023-06-10T03:22:27;99392.06;;;17.41;68.94
61474;BME280;53694;49.784;30.150;2023-06-10T03:23:28;99394.41;;;17.46;68.68
61474;BME280;53694;49.784;30.150;2023-06-10T03:24:30;99396.77;;;17.47;68.40
61474;BME280;53694;49.784;30.150;2023-06-10T03:25:32;99387.62;;;17.51;67.96
61474;BME280;53694;49.784;30.150;2023-06-10T03:26:33;99399.08;;;17.53;67.71
61474;BME280;53694;49.784;30.150;2023-06-10T03:27:35;99393.92;;;17.55;67.58
61474;BME280;53694;49.784;30.150;2023-06-10T03:28:36;99395.06;;;17.57;67.52
61474;BME280;53694;49.784;30.150;2023-06-10T03:29:38;99400.58;;;17.61;67.17
61474;BME280;53694;49.784;30.150;2023-06-10T03:30:40;99396.98;;;17.64;67.06
61474;BME280;53694;49.784;30.150;2023-06-10T03:31:41;99393.74;;;17.69;66.71
61474;BME280;53694;49.784;30.150;2023-06-10T03:32:43;99396.88;;;17.71;66.77
61474;BME280;53694;49.784;30.150;2023-06-10T03:33:44;99398.86;;;17.74;66.82
61474;BME280;53694;49.784;30.150;2023-06-10T03:34:46;99399.61;;;17.78;66.91
61474;BME280;53694;49.784;30.150;2023-06-10T03:35:47;99398.78;;;17.81;67.26
61474;BME280;53694;49.784;30.150;2023-06-10T03:36:49;99410.64;;;17.85;67.02
61474;BME280;53694;49.784;30.150;2023-06-10T03:37:51;99404.26;;;17.88;66.93
61474;BME280;53694;49.784;30.150;2023-06-10T03:38:52;99400.27;;;17.89;66.56
61474;BME280;53694;49.784;30.150;2023-06-10T03:39:53;99401.41;;;17.92;66.99
61474;BME280;53694;49.784;30.150;2023-06-10T03:40:55;99401.80;;;17.94;67.25
61474;BME280;53694;49.784;30.150;2023-06-10T03:41:57;99400.16;;;17.96;67.16
61474;BME280;53694;49.784;30.150;2023-06-10T03:42:58;99400.11;;;18.00;67.00
61474;BME280;53694;49.784;30.150;2023-06-10T03:44:00;99400.08;;;18.04;67.08
61474;BME280;53694;49.784;30.150;2023-06-10T03:45:02;99401.64;;;18.05;67.12
61474;BME280;53694;49.784;30.150;2023-06-10T03:46:04;99404.80;;;18.07;67.14
61474;BME280;53694;49.784;30.150;2023-06-10T03:47:05;99400.81;;;18.08;67.27
61474;BME280;53694;49.784;30.150;2023-06-10T03:48:07;99388.61;;;18.02;67.70
61474;BME280;53694;49.784;30.150;2023-06-10T03:49:09;99397.95;;;18.15;68.20
61474;BME280;53694;49.784;30.150;2023-06-10T03:50:10;99399.87;;;18.18;68.49
61474;BME280;53694;49.784;30.150;2023-06-10T03:51:12;99392.27;;;18.22;68.29
61474;BME280;53694;49.784;30.150;2023-06-10T03:52:13;99396.59;;;18.27;68.36
61474;BME280;53694;49.784;30.150;2023-06-10T03:53:15;99396.52;;;18.30;68.10
61474;BME280;53694;49.784;30.150;2023-06-10T03:54:16;99401.25;;;18.33;67.87
61474;BME280;53694;49.784;30.150;2023-06-10T03:55:18;99399.20;;;18.37;67.85
61474;BME280;53694;49.784;30.150;2023-06-10T03:56:20;99401.16;;;18.40;68.21
61474;BME280;53694;49.784;30.150;2023-06-10T03:57:21;99404.29;;;18.42;68.56
61474;BME280;53694;49.784;30.150;2023-06-10T03:58:23;99402.24;;;18.46;68.65
61474;BME280;53694;49.784;30.150;2023-06-10T03:59:25;99408.14;;;18.52;68.40
61474;BME280;53694;49.784;30.150;2023-06-10T04:00:26;99401.31;;;18.57;68.13
61474;BME280;53694;49.784;30.150;2023-06-10T04:01:28;99405.61;;;18.61;68.09
61474;BME280;53694;49.784;30.150;2023-06-10T04:02:29;99407.13;;;18.66;68.05
61474;BME280;53694;49.784;30.150;2023-06-10T04:03:31;99397.11;;;18.72;68.10
61474;BME280;53694;49.784;30.150;2023-06-10T04:04:32;99401.73;;;18.82;67.84
61474;BME280;53694;49.784;30.150;2023-06-10T04:05:34;99401.73;;;18.82;67.84
61474;BME280;53694;49.784;30.150;2023-06-10T04:06:36;99401.64;;;18.86;67.99
61474;BME280;53694;49.784;30.150;2023-06-10T04:07:37;99398.08;;;18.85;67.85
61474;BME280;53694;49.784;30.150;2023-06-10T04:08:39;99408.02;;;18.86;67.81
61474;BME280;53694;49.784;30.150;2023-06-10T04:09:40;99406.81;;;18.87;67.64
61474;BME280;53694;49.784;30.150;2023-06-10T04:10:42;99401.59;;;18.89;67.84
61474;BME280;53694;49.784;30.150;2023-06-10T04:11:43;99405.10;;;18.93;67.87
61474;BME280;53694;49.784;30.150;2023-06-10T04:12:45;99404.27;;;18.96;67.60
61474;BME280;53694;49.784;30.150;2023-06-10T04:13:46;99402.20;;;19.01;67.33
61474;BME280;53694;49.784;30.150;2023-06-10T04:14:49;99401.71;;;19.06;67.58
61474;BME280;53694;49.784;30.150;2023-06-10T04:15:51;99405.22;;;19.10;67.81
61474;BME280;53694;49.784;30.150;2023-06-10T04:16:53;99400.38;;;19.14;67.68
61474;BME280;53694;49.784;30.150;2023-06-10T04:17:54;99411.80;;;19.19;67.34
61474;BME280;53694;49.784;30.150;2023-06-10T04:18:56;99402.17;;;19.24;67.29
61474;BME280;53694;49.784;30.150;2023-06-10T04:19:57;99408.46;;;19.28;67.28
61474;BME280;53694;49.784;30.150;2023-06-10T04:20:59;99407.62;;;19.31;67.26
61474;BME280;53694;49.784;30.150;2023-06-10T04:22:01;99408.34;;;19.35;67.33
61474;BME280;53694;49.784;30.150;2023-06-10T04:23:02;99405.06;;;19.40;67.39
61474;BME280;53694;49.784;30.150;2023-06-10T04:24:04;99404.59;;;19.45;67.16
61474;BME280;53694;49.784;30.150;2023-06-10T04:25:06;99408.06;;;19.49;67.19
61474;BME280;53694;49.784;30.150;2023-06-10T04:26:08;99409.16;;;19.56;66.97
61474;BME280;53694;49.784;30.150;2023-06-10T04:27:10;99402.67;;;19.62;66.35
61474;BME280;53694;49.784;30.150;2023-06-10T04:28:11;99407.70;;;19.71;66.15
61474;BME280;53694;49.784;30.150;2023-06-10T04:29:13;99400.40;;;19.77;65.96
61474;BME280;53694;49.784;30.150;2023-06-10T04:30:16;99408.25;;;19.82;65.97
61474;BME280;53694;49.784;30.150;2023-06-10T04:31:17;99408.11;;;19.89;66.00
61474;BME280;53694;49.784;30.150;2023-06-10T04:32:19;99407.97;;;19.96;65.57
61474;BME280;53694;49.784;30.150;2023-06-10T04:33:20;99413.75;;;20.06;64.84
61474;BME280;53694;49.784;30.150;2023-06-10T04:34:22;99408.36;;;20.15;64.44
61474;BME280;53694;49.784;30.150;2023-06-10T04:35:23;99413.80;;;20.22;64.19
61474;BME280;53694;49.784;30.150;2023-06-10T04:36:25;99411.27;;;20.28;63.55
61474;BME280;53694;49.784;30.150;2023-06-10T04:37:26;99407.19;;;20.32;63.52
61474;BME280;53694;49.784;30.150;2023-06-10T04:38:28;99409.00;;;20.39;62.97
61474;BME280;53694;49.784;30.150;2023-06-10T04:39:29;99414.83;;;20.48;62.22
61474;BME280;53694;49.784;30.150;2023-06-10T04:40:31;99405.94;;;20.53;61.97
61474;BME280;53694;49.784;30.150;2023-06-10T04:41:32;99402.98;;;20.60;61.65
61474;BME280;53694;49.784;30.150;2023-06-10T04:42:36;99403.24;;;20.66;61.38
61474;BME280;53694;49.784;30.150;2023-06-10T04:43:38;99409.94;;;20.68;61.05
61474;BME280;53694;49.784;30.150;2023-06-10T04:44:39;99407.15;;;20.68;60.51
61474;BME280;53694;49.784;30.150;2023-06-10T04:45:41;99402.46;;;20.65;58.85
61474;BME280;53694;49.784;30.150;2023-06-10T04:46:43;99407.75;;;20.60;58.53
61474;BME280;53694;49.784;30.150;2023-06-10T04:47:44;99411.85;;;20.55;58.06
61474;BME280;53694;49.784;30.150;2023-06-10T04:48:46;99406.72;;;20.54;58.65
61474;BME280;53694;49.784;30.150;2023-06-10T04:49:47;99404.27;;;20.56;58.54
61474;BME280;53694;49.784;30.150;2023-06-10T04:50:49;99394.70;;;20.57;58.41
61474;BME280;53694;49.784;30.150;2023-06-10T04:51:51;99400.20;;;20.60;58.72
61474;BME280;53694;49.784;30.150;2023-06-10T04:52:52;99397.66;;;20.66;58.82
61474;BME280;53694;49.784;30.150;2023-06-10T04:53:54;99398.36;;;20.70;58.91
61474;BME280;53694;49.784;30.150;2023-06-10T04:54:57;99396.69;;;20.72;58.71
61474;BME280;53694;49.784;30.150;2023-06-10T04:55:58;99407.69;;;20.80;58.61
61474;BME280;53694;49.784;30.150;2023-06-10T04:57:00;99398.00;;;20.84;58.63
61474;BME280;53694;49.784;30.150;2023-06-10T04:58:01;99392.78;;;20.86;58.19
61474;BME280;53694;49.784;30.150;2023-06-10T04:59:03;99391.89;;;20.89;58.24
61474;BME280;53694;49.784;30.150;2023-06-10T05:00:05;99396.97;;;20.94;58.33
61474;BME280;53694;49.784;30.150;2023-06-10T05:01:07;99397.99;;;21.01;57.73
61474;BME280;53694;49.784;30.150;2023-06-10T05:02:08;99396.23;;;21.07;57.72
61474;BME280;53694;49.784;30.150;2023-06-10T05:03:09;99397.61;;;21.15;57.57
61474;BME280;53694;49.784;30.150;2023-06-10T05:04:11;99395.88;;;21.21;56.89
61474;BME280;53694;49.784;30.150;2023-06-10T05:05:12;99392.99;;;21.25;56.91
61474;BME280;53694;49.784;30.150;2023-06-10T05:06:15;99401.70;;;21.27;56.92
61474;BME280;53694;49.784;30.150;2023-06-10T05:07:16;99400.05;;;21.29;57.08
61474;BME280;53694;49.784;30.150;2023-06-10T05:08:18;99397.20;;;21.33;56.56
61474;BME280;53694;49.784;30.150;2023-06-10T05:09:19;99394.73;;;21.35;56.56
61474;BME280;53694;49.784;30.150;2023-06-10T05:10:21;99399.87;;;21.36;56.58
61474;BME280;53694;49.784;30.150;2023-06-10T05:11:23;99397.44;;;21.38;56.52
61474;BME280;53694;49.784;30.150;2023-06-10T05:12:24;99389.38;;;21.40;56.39
61474;BME280;53694;49.784;30.150;2023-06-10T05:13:26;99395.66;;;21.44;56.29
61474;BME280;53694;49.784;30.150;2023-06-10T05:14:27;99389.98;;;21.48;55.84
61474;BME280;53694;49.784;30.150;2023-06-10T05:15:29;99398.72;;;21.50;55.50
61474;BME280;53694;49.784;30.150;2023-06-10T05:16:30;99395.83;;;21.54;55.64
61474;BME280;53694;49.784;30.150;2023-06-10T05:17:32;99400.19;;;21.55;55.37
61474;BME280;53694;49.784;30.150;2023-06-10T05:18:33;99400.88;;;21.59;55.32
61474;BME280;53694;49.784;30.150;2023-06-10T05:19:35;99394.38;;;21.62;55.27
61474;BME280;53694;49.784;30.150;2023-06-10T05:20:37;99390.70;;;21.65;55.43
61474;BME280;53694;49.784;30.150;2023-06-10T05:21:38;99391.84;;;21.67;55.46
61474;BME280;53694;49.784;30.150;2023-06-10T05:22:39;99388.50;;;21.73;55.38
61474;BME280;53694;49.784;30.150;2023-06-10T05:23:41;99389.96;;;21.77;55.54
61474;BME280;53694;49.784;30.150;2023-06-10T05:24:42;99383.49;;;21.80;55.29
61474;BME280;53694;49.784;30.150;2023-06-10T05:25:44;99391.33;;;21.85;55.36